Résultats événements

29/09/2018 Extrememan 2018-Cross Triathlon




Sortie natation

Arrivée vélo

Arrivée
Categorie:

Clt Temps de course Nom Dos Cat Temps sur l'intervalle Clt int. Gain
1 00:57:43 SERRIERES Arthur 776 MS1 00:13:22 1 0
2 01:01:55 HANDJIAN Melvin 764 MS1 00:15:44 7 0
3 01:05:24 CLUZEAU Christophe 723 MS1 00:15:45 8 1
4 01:05:30 GUERIN Jean claude 792 MV2 00:15:28 5 1
5 01:06:12 LALANNE Baptiste 777 MCA 00:14:53 4 3
6 01:06:13 FALOPPA Christophe 763 MS4 00:16:11 13 0
7 01:08:01 RIGOULET Florian 753 MS1 00:17:00 18 0
8 01:08:40 ALAY Martin 781 MS2 00:16:58 16 1
9 01:08:44 JACQUOT Leo 704 MCA 00:16:08 12 2
10 01:09:48 HOT Kenrick 758 MS1 00:15:45 9 3
11 01:10:00 GUIRAUD Laurent 733 MS3 00:15:57 10 3
12 01:10:25 RUIZ Corentin 703 MS2 00:17:48 27 0
13 01:10:47 AVIZOU Philippe 791 MV2 00:16:39 15 2
14 01:11:19 BONHOURE Jeremy 708 MS3 00:15:59 11 3
15 01:11:42 DELARBRE Matthieu 779 MS4 00:16:58 17 1
16 01:13:07 FERRIES Marius 761 MCA 00:13:34 2 13
17 01:13:41 PARIENTE Martin 765 MCA 00:14:39 3 11
18 01:13:53 POLESELLO Jimmy 750 MS1 00:17:21 23 1
19 01:14:45 White samouraï 852 RELM 00:28:21 88 -16
20 01:15:57 Team PLA 855 RELM 00:23:39 78 -10
21 01:16:05 PARIS Nicolas 788 MS4 00:18:39 33 -1
22 01:16:11 FRANçOIS Pierreluc 769 MS3 00:17:19 22 4
23 01:16:28 PEREZ Michael 756 MS4 00:17:28 25 4
24 01:16:34 VICHY TEAM 853 RELM 00:20:42 57 -6
25 01:16:37 BARDOU Anthony 711 MS2 00:18:05 28 -2
26 01:16:44 O NEILL Fran 790 FS3 00:17:04 19 4
27 01:16:45 MENVIELLE Romain 742 MS3 00:19:14 42 -6
28 01:18:08 HOJSAN Alexandre 734 MV2 00:19:26 43 -4
29 01:18:30 AUZIER Denis 778 MV1 00:18:42 34 2
30 01:19:00 MOREAU Alain 745 MV3 00:18:59 39 2
31 01:19:11 DENNY Nicolas 727 MV2 00:19:00 40 2
32 01:19:18 JACQUOT Justine 760 FJU 00:18:21 32 2
33 01:19:24 DANDINE Bruno 726 MV2 00:20:34 56 -8
34 01:19:24 GRATACAP Marius 780 MCA 00:17:19 21 1
35 01:19:26 DESMET Benjamin 728 MS3 00:17:06 20 2
36 01:19:40 SALMON Erwan 757 MS1 00:15:29 6 12
37 01:20:25 CORBIèRE Grégoire 793 MS2 00:18:12 31 -1
38 01:20:55 LONCAN Sylvain 738 MS4 00:17:27 24 6
39 01:21:16 BARBOTEAU Elodie 710 FS2 00:17:30 26 6
40 01:21:20 BAYE Jérémy 712 MS3 00:18:11 30 0
41 01:22:00 MAILHAC Anthony 739 MS2 00:18:50 36 0
42 01:22:09 CARMON Brice 721 MS3 00:18:54 37 0
43 01:22:37 BAYSSE Benjamin 713 MS2 00:20:02 49 -4
44 01:22:40 MASSOL Anaelle 787 FCA 00:16:30 14 12
45 01:22:48 PONS GERMAIN Yves-robert 751 MS3 00:18:56 38 1
46 01:23:19 DEWAS Albert 729 MS3 00:18:42 35 4
47 01:23:50 LAMOTHE Vincent 735 MV1 00:19:42 44 0
48 01:23:50 BOHN Sébastien 715 MS3 00:21:26 61 -10
49 01:24:59 MONTANDON FAMILY 854 RELM 00:21:32 64 -6
50 01:25:33 MIRALLES Virgile 783 MV6 00:20:19 53 1
51 01:25:58 BOUSQUET Jean marc 717 MV1 00:20:12 51 2
52 01:26:19 les futurs mariés 877 RELM 00:28:40 90 -30
53 01:26:26 MOREAU Samuel 744 MCA 00:20:48 58 -1
54 01:26:28 MEYNIER Vincent 743 MV4 00:21:55 65 -5
55 01:26:34 SOULIE Cedric 771 MV1 00:19:45 46 3
56 01:26:41 BEZOMBES Jerome 701 MV2 00:20:08 50 1
57 01:27:28 GARCIN Caroline 784 FS1 00:19:10 41 5
58 01:27:57 MASSAL Dominique 789 MS3 00:20:21 54 2
59 01:28:16 MASSIES Laurent 768 MS3 00:22:18 69 -5
60 01:28:16 COLOGNI Adelaide 767 FS4 00:22:12 67 -5
61 01:28:50 DIAZ Remy 772 MS1 00:20:01 48 3
62 01:28:55 CARDOT Jeoffrey 720 MS4 00:21:03 60 -1
63 01:30:36 happy team 866 RELM 00:23:33 75 -4
64 01:32:05 MARUEJOLS Franck 740 MV3 00:23:25 74 -1
65 01:32:25 CLUZEAU Patrice 722 MV4 00:23:34 76 0
66 01:33:16 MARTIN Mireille 782 FV4 00:23:37 77 0
67 01:36:08 BONNET Romain 716 MS4 00:20:53 59 4
68 01:36:23 LABILLOIS Roxane 775 FS1 00:19:44 45 11
69 01:36:34 RAYNAUD Elise 766 MCA 00:19:56 47 9
70 01:36:35 CSMJ_Family 851 RELM 00:18:08 29 15
71 01:36:45 FERRIES Laurent 762 MV2 00:23:04 71 -4
72 01:36:46 MASSOL Patric 786 MV2 00:23:04 72 -4
73 01:36:50 LEGAREZ Maxime 737 MS2 00:21:29 62 -1
74 01:37:08 BIBAL Claudine 714 FV1 00:20:27 55 6
75 01:37:42 ALRIC Sabine 709 FV1 00:22:18 68 -2
76 01:37:47 DENNERY Emeline 706 FV2 00:22:34 70 -6
77 01:38:39 ATLAN Christelle 702 FV1 00:20:18 52 6
78 01:39:19 CONDOM Nicolas 724 MV2 00:23:09 73 -1
79 01:39:32 PELI Laurie 749 FS1 00:23:42 79 -4
80 01:41:01 PALLA Morgane 747 FS2 00:25:14 84 -6
81 01:42:32 KINDELBERGER Cynthia 707 FS3 00:24:05 81 3
82 01:43:05 SIMONET Stephanie 785 FV1 00:24:44 83 0
83 01:43:33 CRAMPE Joelle 705 FS4 00:21:30 63 5
84 01:43:41 FAILLERES David 730 MS2 00:27:37 87 -8
85 01:44:33 SASERAS CAPDEVILLE Françoise 759 FV4 00:22:01 66 4
86 01:45:22 CORMARY Benoît 725 MV3 00:27:07 86 -5
87 01:46:15 PELI Florian 748 MJU 00:24:20 82 0
88 01:48:38 SACKDA Benjamin 754 MS4 00:23:58 80 3
89 01:48:57 PALLA Patrick 746 MV4 00:28:29 89 -3
90 01:50:00 MIQUEL Léa 774 FS1 00:25:59 85 0


Restez connectés à vos performances